createdAt,value
2018-09-24T00:01:03.400Z,2.62
2018-09-24T00:03:30.775Z,3.02
2018-09-24T00:05:58.084Z,2.60
2018-09-24T00:08:26.066Z,2.60
2018-09-24T00:10:53.647Z,3.30
2018-09-24T00:13:21.002Z,2.95
2018-09-24T00:15:48.408Z,2.30
2018-09-24T00:18:16.682Z,2.52
2018-09-24T00:20:43.990Z,2.98
2018-09-24T00:23:11.391Z,3.33
2018-09-24T00:25:38.642Z,2.47
2018-09-24T00:28:05.934Z,2.80
2018-09-24T00:30:33.359Z,2.70
2018-09-24T00:33:00.743Z,2.67
2018-09-24T00:35:27.999Z,2.30
2018-09-24T00:37:55.643Z,2.80
2018-09-24T00:40:22.963Z,2.20
2018-09-24T00:42:50.327Z,2.08
2018-09-24T00:45:17.711Z,2.37
2018-09-24T00:47:44.986Z,2.37
2018-09-24T00:50:12.255Z,2.75
2018-09-24T00:52:39.629Z,2.40
2018-09-24T00:55:06.938Z,2.40
2018-09-24T00:57:34.213Z,2.90
2018-09-24T01:00:01.569Z,3.30
2018-09-24T01:02:28.967Z,2.77
2018-09-24T01:04:56.470Z,2.20
2018-09-24T01:07:23.770Z,2.45
2018-09-24T01:09:51.074Z,2.35
2018-09-24T01:12:18.405Z,2.47
2018-09-24T01:14:45.685Z,2.20
2018-09-24T01:17:13.553Z,2.02
2018-09-24T01:19:40.933Z,2.58
2018-09-24T01:22:08.198Z,2.40
2018-09-24T01:24:35.550Z,2.20
2018-09-24T01:27:02.855Z,2.40
2018-09-24T01:29:30.155Z,2.00
2018-09-24T01:31:57.663Z,2.10
2018-09-24T01:34:24.986Z,2.22
2018-09-24T01:36:52.525Z,2.27
2018-09-24T01:39:19.822Z,2.10
2018-09-24T01:41:47.098Z,2.12
2018-09-24T01:44:14.435Z,2.37
2018-09-24T01:46:41.857Z,2.15
2018-09-24T01:49:09.139Z,2.05
2018-09-24T01:51:37.776Z,2.77
2018-09-24T01:54:05.871Z,2.50
2018-09-24T01:56:33.230Z,2.58
2018-09-24T01:59:00.792Z,1.90
2018-09-24T02:01:28.084Z,2.50
2018-09-24T02:03:55.406Z,3.83
2018-09-24T02:06:22.757Z,2.00
2018-09-24T02:08:50.058Z,4.37
2018-09-24T02:11:17.307Z,2.40
2018-09-24T02:13:46.453Z,2.30
2018-09-24T02:16:13.748Z,2.75
2018-09-24T02:18:41.666Z,1.90
2018-09-24T02:21:09.062Z,2.60
2018-09-24T02:23:36.360Z,2.40
2018-09-24T02:26:03.934Z,2.15
2018-09-24T02:28:31.741Z,2.05
2018-09-24T02:30:59.035Z,2.65
2018-09-24T02:33:27.054Z,2.00
2018-09-24T02:35:54.311Z,2.37
2018-09-24T02:38:21.615Z,2.45
2018-09-24T02:40:48.932Z,2.40
2018-09-24T02:43:22.583Z,2.35
2018-09-24T02:45:50.383Z,3.15
2018-09-24T02:48:18.034Z,2.25
2018-09-24T02:50:45.371Z,2.42
2018-09-24T02:53:12.662Z,2.30
2018-09-24T02:55:39.911Z,2.05
2018-09-24T02:58:07.290Z,2.30
2018-09-24T03:00:34.538Z,2.00
2018-09-24T03:03:07.643Z,3.08
2018-09-24T03:05:34.932Z,2.20
2018-09-24T03:08:03.807Z,2.22
2018-09-24T03:10:31.085Z,2.60
2018-09-24T03:12:58.400Z,2.50
2018-09-24T03:15:26.093Z,2.20
2018-09-24T03:17:53.394Z,2.10
2018-09-24T03:20:20.721Z,1.80
2018-09-24T03:22:48.013Z,2.00
2018-09-24T03:25:17.530Z,2.42
2018-09-24T03:27:45.115Z,2.47
2018-09-24T03:30:12.375Z,1.80
2018-09-24T03:32:39.723Z,2.05
2018-09-24T03:35:06.993Z,1.87
2018-09-24T03:37:34.530Z,2.70
2018-09-24T03:40:01.820Z,2.08
2018-09-24T03:42:29.179Z,2.72
2018-09-24T03:44:56.504Z,2.30
2018-09-24T03:47:23.783Z,2.67
2018-09-24T03:49:51.074Z,2.27
2018-09-24T03:52:18.504Z,2.20
2018-09-24T03:54:45.812Z,1.77
2018-09-24T03:57:13.066Z,1.70
2018-09-24T03:59:40.444Z,2.05
2018-09-24T04:02:07.722Z,2.42
2018-09-24T04:04:40.631Z,1.90
2018-09-24T04:07:13.332Z,2.02
2018-09-24T04:09:46.196Z,2.98
2018-09-24T04:12:18.822Z,2.05
2018-09-24T04:14:51.402Z,2.20
2018-09-24T04:17:24.070Z,2.10
2018-09-24T04:19:56.738Z,1.90
2018-09-24T04:22:29.382Z,2.10
2018-09-24T04:25:02.129Z,2.00
2018-09-24T04:27:34.795Z,2.33
2018-09-24T04:30:07.398Z,2.12
2018-09-24T04:32:40.188Z,2.20
2018-09-24T04:35:13.194Z,1.65
2018-09-24T04:37:45.801Z,1.85
2018-09-24T04:40:18.470Z,2.10
2018-09-24T04:42:51.071Z,2.50
2018-09-24T04:45:23.779Z,2.22
2018-09-24T04:47:56.316Z,2.02
2018-09-24T04:50:28.976Z,1.92
2018-09-24T04:53:01.656Z,1.98
2018-09-24T04:55:34.334Z,2.30
2018-09-24T04:58:07.134Z,2.12
2018-09-24T05:00:39.867Z,2.25
2018-09-24T05:03:12.546Z,2.20
2018-09-24T05:05:45.115Z,2.50
2018-09-24T05:08:17.917Z,2.05
2018-09-24T05:10:51.099Z,2.35
2018-09-24T05:13:23.914Z,2.52
2018-09-24T05:15:56.553Z,2.22
2018-09-24T05:18:29.212Z,2.25
2018-09-24T05:21:02.103Z,2.55
2018-09-24T05:23:34.942Z,2.30
2018-09-24T05:26:07.499Z,2.10
2018-09-24T05:28:40.345Z,2.40
2018-09-24T05:31:13.105Z,2.50
2018-09-24T05:33:45.835Z,2.10
2018-09-24T05:36:18.613Z,2.05
2018-09-24T05:38:51.140Z,3.70
2018-09-24T05:41:24.041Z,2.20
2018-09-24T05:43:56.672Z,2.20
2018-09-24T05:46:29.290Z,2.33
2018-09-24T05:49:01.909Z,2.17
2018-09-24T05:51:34.598Z,2.55
2018-09-24T05:54:07.394Z,1.90
2018-09-24T05:56:40.067Z,1.90
2018-09-24T05:59:12.738Z,2.70
2018-09-24T06:01:45.532Z,1.72
2018-09-24T06:04:18.136Z,2.30
2018-09-24T06:06:50.887Z,2.00
2018-09-24T06:09:23.479Z,2.12
2018-09-24T06:11:56.250Z,1.80
2018-09-24T06:14:29.030Z,2.08
2018-09-24T06:17:01.716Z,1.77
2018-09-24T06:19:34.318Z,2.05
2018-09-24T06:22:07.117Z,1.90
2018-09-24T06:24:39.806Z,1.90
2018-09-24T06:27:12.559Z,2.52
2018-09-24T06:29:45.175Z,1.95
2018-09-24T06:32:17.922Z,1.95
2018-09-24T06:34:50.544Z,1.75
2018-09-24T06:37:23.202Z,2.10
2018-09-24T06:39:55.900Z,2.20
2018-09-24T06:42:28.731Z,2.15
2018-09-24T06:45:01.406Z,1.90
2018-09-24T06:47:34.138Z,2.55
2018-09-24T06:50:06.798Z,1.85
2018-09-24T06:52:39.403Z,2.02
2018-09-24T06:55:12.018Z,2.83
2018-09-24T06:57:44.627Z,2.08
2018-09-24T07:00:17.371Z,2.17
2018-09-24T07:02:50.065Z,1.60
2018-09-24T07:05:22.828Z,1.80
2018-09-24T07:07:55.416Z,2.20
2018-09-24T07:10:28.167Z,1.70
2018-09-24T07:13:00.967Z,2.30
2018-09-24T07:15:33.652Z,2.10
2018-09-24T07:18:06.462Z,1.98
2018-09-24T07:20:39.350Z,1.70
2018-09-24T07:23:12.039Z,1.50
2018-09-24T07:25:44.853Z,1.55
2018-09-24T07:28:17.668Z,1.70
2018-09-24T07:30:50.342Z,1.50
2018-09-24T07:33:23.355Z,1.80
2018-09-24T07:35:56.017Z,1.90
2018-09-24T07:38:28.707Z,1.92
2018-09-24T07:41:01.506Z,1.90
2018-09-24T07:43:34.345Z,1.80
2018-09-24T07:46:07.111Z,1.60
2018-09-24T07:48:39.901Z,1.87
2018-09-24T07:51:12.532Z,3.00
2018-09-24T07:53:45.198Z,1.52
2018-09-24T07:56:18.003Z,2.10
2018-09-24T07:58:50.808Z,1.65
2018-09-24T08:01:23.461Z,1.70
2018-09-24T08:03:56.120Z,1.82
2018-09-24T08:06:28.851Z,2.08
2018-09-24T08:09:01.670Z,1.75
2018-09-24T08:11:34.343Z,1.70
2018-09-24T08:14:07.024Z,1.82
2018-09-24T08:16:39.795Z,1.95
2018-09-24T08:19:12.582Z,1.70
2018-09-24T08:21:45.190Z,1.50
2018-09-24T08:24:17.930Z,2.30
2018-09-24T08:26:50.634Z,1.75
2018-09-24T08:29:23.268Z,1.70
2018-09-24T08:31:56.021Z,1.40
2018-09-24T08:34:28.611Z,1.60
2018-09-24T08:37:01.419Z,1.98
2018-09-24T08:39:34.229Z,2.05
2018-09-24T08:42:06.907Z,1.90
2018-09-24T08:44:40.016Z,1.87
2018-09-24T08:47:12.652Z,1.80
2018-09-24T08:49:45.450Z,2.15
2018-09-24T08:52:18.117Z,1.62
2018-09-24T08:54:50.806Z,1.55
2018-09-24T08:57:23.490Z,1.70
2018-09-24T08:59:56.100Z,2.40
2018-09-24T09:02:28.814Z,2.95
2018-09-24T09:05:01.487Z,1.98
2018-09-24T09:07:34.200Z,1.30
2018-09-24T09:10:06.990Z,1.47
2018-09-24T09:12:39.681Z,1.98
2018-09-24T09:15:12.579Z,1.47
2018-09-24T09:17:45.364Z,1.77
2018-09-24T09:20:18.050Z,2.15
2018-09-24T09:22:50.695Z,1.60
2018-09-24T09:25:23.462Z,1.87
2018-09-24T09:27:56.276Z,1.60
2018-09-24T09:30:29.053Z,1.70
2018-09-24T09:33:01.746Z,2.27
2018-09-24T09:35:34.573Z,1.90
2018-09-24T09:38:07.346Z,1.85
2018-09-24T09:40:40.050Z,1.30
2018-09-24T09:43:12.735Z,1.60
2018-09-24T09:45:45.523Z,1.65
2018-09-24T09:48:18.114Z,1.50
2018-09-24T09:50:50.958Z,1.90
2018-09-24T09:53:23.614Z,1.70
2018-09-24T09:55:56.350Z,1.40
2018-09-24T09:58:29.093Z,1.67
2018-09-24T10:01:02.430Z,1.55
2018-09-24T10:03:35.033Z,1.60
2018-09-24T10:06:07.902Z,2.47
2018-09-24T10:08:40.742Z,1.57
2018-09-24T10:11:13.420Z,1.50
2018-09-24T10:13:46.038Z,2.08
2018-09-24T10:16:18.660Z,1.50
2018-09-24T10:18:51.375Z,1.35
2018-09-24T10:21:24.326Z,1.32
2018-09-24T10:23:57.068Z,1.30
2018-09-24T10:26:29.710Z,1.20
2018-09-24T10:29:02.258Z,1.30
2018-09-24T10:31:34.946Z,1.15
2018-09-24T10:34:07.676Z,1.25
2018-09-24T10:36:40.474Z,1.00
2018-09-24T10:39:13.844Z,1.30
2018-09-24T10:41:46.840Z,1.65
2018-09-24T10:44:19.649Z,1.30
2018-09-24T10:46:52.434Z,1.12
2018-09-24T10:49:25.162Z,1.30
2018-09-24T10:51:57.979Z,1.10
2018-09-24T10:54:30.496Z,1.12
2018-09-24T10:57:03.277Z,1.00
2018-09-24T10:59:35.940Z,1.15
2018-09-24T11:02:08.521Z,1.20
2018-09-24T11:04:41.213Z,1.27
2018-09-24T11:07:13.839Z,1.10
2018-09-24T11:09:46.436Z,1.02
2018-09-24T11:12:19.331Z,1.00
2018-09-24T11:14:52.220Z,1.30
2018-09-24T11:17:25.245Z,0.90
2018-09-24T11:19:57.763Z,1.35
2018-09-24T11:22:30.400Z,1.35
2018-09-24T11:25:03.250Z,1.75
2018-09-24T11:27:36.097Z,1.10
2018-09-24T11:30:08.865Z,1.20
2018-09-24T11:32:41.619Z,1.20
2018-09-24T11:35:14.414Z,1.17
2018-09-24T11:37:47.200Z,1.02
2018-09-24T11:40:19.883Z,1.00
2018-09-24T11:42:52.681Z,1.02
2018-09-24T11:45:25.466Z,1.30
2018-09-24T11:47:58.097Z,1.22
2018-09-24T11:50:30.809Z,1.20
2018-09-24T11:53:03.654Z,1.35
2018-09-24T11:55:36.461Z,1.30
2018-09-24T11:58:15.873Z,1.15
2018-09-24T12:00:48.672Z,1.60
2018-09-24T12:03:21.359Z,1.45
2018-09-24T12:05:54.066Z,1.10
2018-09-24T12:08:26.842Z,1.10
2018-09-24T12:10:59.376Z,1.00
2018-09-24T12:13:32.000Z,1.00
2018-09-24T12:16:04.802Z,1.00
2018-09-24T12:18:37.465Z,1.37
2018-09-24T12:21:10.289Z,0.98
2018-09-24T12:23:43.094Z,1.20
2018-09-24T12:26:15.782Z,1.07
2018-09-24T12:28:48.459Z,1.30
2018-09-24T12:31:21.055Z,1.67
2018-09-24T12:33:53.728Z,1.00
2018-09-24T12:36:26.547Z,1.17
2018-09-24T12:38:59.555Z,0.80
2018-09-24T12:41:32.238Z,2.08
2018-09-24T12:44:04.997Z,1.37
2018-09-24T12:46:37.633Z,1.07
2018-09-24T12:49:10.287Z,1.27
2018-09-24T12:51:42.979Z,1.20
2018-09-24T12:54:15.684Z,1.10
2018-09-24T12:56:48.408Z,1.05
2018-09-24T12:59:21.287Z,1.10
2018-09-24T13:01:54.246Z,1.10
2018-09-24T13:04:26.918Z,0.80
2018-09-24T13:06:59.763Z,1.05
2018-09-24T13:09:32.596Z,0.80
2018-09-24T13:12:05.187Z,0.95
2018-09-24T13:14:37.887Z,1.30
2018-09-24T13:17:10.542Z,1.30
2018-09-24T13:19:43.311Z,0.80
2018-09-24T13:22:15.948Z,0.90
2018-09-24T13:24:48.655Z,1.02
2018-09-24T13:27:21.371Z,1.10
2018-09-24T13:29:54.034Z,1.20
2018-09-24T13:32:26.890Z,1.42
2018-09-24T13:34:59.570Z,1.10
2018-09-24T13:37:32.274Z,1.15
2018-09-24T13:40:05.150Z,1.22
2018-09-24T13:42:37.826Z,0.90
2018-09-24T13:45:10.671Z,1.12
2018-09-24T13:47:43.223Z,0.90
2018-09-24T13:50:16.009Z,0.90
2018-09-24T13:52:48.803Z,1.25
2018-09-24T13:55:21.642Z,2.75
2018-09-24T13:57:54.453Z,1.07
2018-09-24T14:00:27.135Z,1.20
2018-09-24T14:02:59.797Z,1.10
2018-09-24T14:05:32.560Z,1.37
2018-09-24T14:08:05.430Z,0.95
2018-09-24T14:10:37.984Z,0.80
2018-09-24T14:13:10.805Z,0.80
2018-09-24T14:15:43.390Z,1.30
2018-09-24T14:18:16.083Z,1.00
2018-09-24T14:20:48.768Z,1.05
2018-09-24T14:23:21.483Z,1.10
2018-09-24T14:25:54.079Z,0.90
2018-09-24T14:28:27.616Z,1.02
2018-09-24T14:31:00.235Z,1.00
2018-09-24T14:33:33.153Z,1.00
2018-09-24T14:36:05.849Z,1.00
2018-09-24T14:38:38.528Z,1.00
2018-09-24T14:41:11.136Z,1.15
2018-09-24T14:43:43.959Z,1.10
2018-09-24T14:46:16.690Z,0.90
2018-09-24T14:48:49.409Z,1.20
2018-09-24T14:51:22.860Z,1.30
2018-09-24T14:53:55.601Z,1.30
2018-09-24T14:56:28.275Z,1.47
2018-09-24T14:59:01.027Z,1.10
2018-09-24T15:01:33.571Z,1.20
2018-09-24T15:04:06.239Z,1.20
2018-09-24T15:06:39.033Z,1.20
2018-09-24T15:09:12.738Z,1.22
2018-09-24T15:11:45.634Z,1.45
2018-09-24T15:14:18.342Z,1.20
2018-09-24T15:16:51.121Z,0.95
2018-09-24T15:19:23.732Z,1.60
2018-09-24T15:21:56.547Z,1.30
2018-09-24T15:24:29.250Z,1.07
2018-09-24T15:27:02.000Z,1.10
2018-09-24T15:29:34.754Z,2.00
2018-09-24T15:32:07.343Z,1.40
2018-09-24T15:34:40.518Z,1.30
2018-09-24T15:37:13.207Z,1.00
2018-09-24T15:39:45.978Z,0.90
2018-09-24T15:42:18.977Z,1.17
2018-09-24T15:44:51.737Z,1.12
2018-09-24T15:47:24.382Z,0.95
2018-09-24T15:49:57.088Z,9.65
2018-09-24T15:52:29.983Z,2.80
2018-09-24T15:55:02.767Z,3.75
2018-09-24T15:57:36.238Z,2.80
2018-09-24T16:00:09.485Z,1.10
2018-09-24T16:02:42.822Z,1.25
2018-09-24T16:05:15.909Z,1.50
2018-09-24T16:07:48.632Z,1.40
2018-09-24T16:10:21.346Z,1.10
2018-09-24T16:12:54.224Z,1.30
2018-09-24T16:15:26.910Z,1.20
2018-09-24T16:17:59.695Z,1.70
2018-09-24T16:20:32.501Z,1.27
2018-09-24T16:23:05.280Z,1.17
2018-09-24T16:25:37.969Z,1.20
2018-09-24T16:28:10.925Z,1.62
2018-09-24T16:30:43.561Z,1.35
2018-09-24T16:33:16.268Z,1.25
2018-09-24T16:35:48.983Z,1.55
2018-09-24T16:38:22.293Z,1.75
2018-09-24T16:40:54.982Z,1.30
2018-09-24T16:43:27.666Z,1.30
2018-09-24T16:46:00.351Z,1.35
2018-09-24T16:48:33.008Z,1.50
2018-09-24T16:51:05.640Z,1.60
2018-09-24T16:53:38.480Z,1.30
2018-09-24T16:56:11.364Z,1.55
2018-09-24T16:58:44.083Z,1.32
2018-09-24T17:01:17.563Z,1.30
2018-09-24T17:03:50.791Z,1.40
2018-09-24T17:06:23.661Z,1.60
2018-09-24T17:08:57.060Z,1.50
2018-09-24T17:11:29.871Z,1.50
2018-09-24T17:14:02.665Z,2.20
2018-09-24T17:16:35.682Z,1.80
2018-09-24T17:19:09.645Z,1.85
2018-09-24T17:21:42.511Z,1.60
2018-09-24T17:24:15.547Z,2.30
2018-09-24T17:26:48.282Z,1.80
2018-09-24T17:29:21.635Z,1.52
2018-09-24T17:31:54.407Z,1.80
2018-09-24T17:34:27.042Z,1.55
2018-09-24T17:36:59.786Z,1.60
2018-09-24T17:39:33.260Z,1.82
2018-09-24T17:42:06.050Z,1.65
2018-09-24T17:44:38.674Z,1.87
2018-09-24T17:47:12.195Z,3.00
2018-09-24T17:49:44.859Z,1.80
2018-09-24T17:52:18.037Z,2.00
2018-09-24T17:54:51.177Z,2.00
2018-09-24T17:57:24.903Z,2.05
2018-09-24T17:59:58.745Z,1.90
2018-09-24T18:02:31.478Z,1.52
2018-09-24T18:05:04.519Z,1.90
2018-09-24T18:07:37.268Z,2.08
2018-09-24T18:10:14.166Z,2.37
2018-09-24T18:12:47.451Z,2.25
2018-09-24T18:15:20.437Z,2.60
2018-09-24T18:17:53.155Z,2.87
2018-09-24T18:20:26.131Z,2.30
2018-09-24T18:22:58.843Z,2.80
2018-09-24T18:25:31.657Z,2.37
2018-09-24T18:28:04.740Z,2.55
2018-09-24T18:30:37.433Z,2.15
2018-09-24T18:33:10.214Z,2.33
2018-09-24T18:35:42.926Z,3.12
2018-09-24T18:38:15.664Z,2.62
2018-09-24T18:40:48.311Z,2.77
2018-09-24T18:43:21.212Z,3.83
2018-09-24T18:45:54.005Z,2.90
2018-09-24T18:48:26.707Z,5.22
2018-09-24T18:50:59.401Z,4.35
2018-09-24T18:53:32.069Z,4.25
2018-09-24T18:56:04.781Z,5.35
2018-09-24T18:58:37.580Z,7.35
2018-09-24T19:01:10.382Z,5.95
2018-09-24T19:03:43.143Z,6.33
2018-09-24T19:06:16.555Z,5.15
2018-09-24T19:08:49.336Z,6.00
2018-09-24T19:11:27.793Z,5.70
2018-09-24T19:13:55.330Z,6.58
2018-09-24T19:16:28.058Z,5.10
2018-09-24T19:19:02.165Z,4.45
2018-09-24T19:21:34.886Z,4.25
2018-09-24T19:24:07.959Z,2.95
2018-09-24T19:29:13.640Z,2.40
2018-09-24T19:31:46.674Z,2.00
2018-09-24T19:34:19.507Z,2.05
2018-09-24T19:36:53.233Z,2.10
2018-09-24T19:39:26.467Z,2.55
2018-09-24T19:41:59.251Z,2.08
2018-09-24T19:44:32.470Z,1.90
2018-09-24T19:47:05.173Z,1.80
2018-09-24T19:49:37.866Z,2.00
2018-09-24T19:52:10.649Z,2.67
2018-09-24T19:54:47.570Z,2.12
2018-09-24T19:59:53.168Z,2.10
2018-09-24T20:02:25.930Z,1.80
2018-09-24T20:05:02.693Z,1.67
2018-09-24T20:10:12.180Z,1.80
2018-09-24T20:12:45.503Z,1.82
2018-09-24T20:15:18.323Z,2.10
2018-09-24T20:17:51.085Z,1.55
2018-09-24T20:20:23.833Z,1.65
2018-09-24T20:22:57.442Z,1.60
2018-09-24T20:25:30.489Z,1.80
2018-09-24T20:28:03.423Z,2.00
2018-09-24T20:30:36.208Z,1.60
2018-09-24T20:33:09.011Z,1.90
2018-09-24T20:38:14.642Z,1.80
2018-09-24T20:40:47.369Z,1.87
2018-09-24T20:43:20.423Z,1.65
2018-09-24T20:45:53.778Z,1.60
2018-09-24T20:48:28.231Z,2.10
2018-09-24T20:51:01.953Z,1.50
2018-09-24T20:53:34.701Z,2.00
2018-09-24T20:56:08.332Z,1.70
2018-09-24T20:58:41.103Z,2.30
2018-09-24T21:01:13.822Z,1.50
2018-09-24T21:03:47.122Z,2.10
2018-09-24T21:06:23.899Z,1.70
2018-09-24T21:08:56.643Z,2.10
2018-09-24T21:11:29.396Z,2.22
2018-09-24T21:14:02.157Z,1.90
2018-09-24T21:16:35.329Z,2.15
2018-09-24T21:19:12.539Z,1.65
2018-09-24T21:21:45.839Z,1.40
2018-09-24T21:24:18.717Z,2.12
2018-09-24T21:26:51.523Z,2.20
2018-09-24T21:31:57.015Z,1.80
2018-09-24T21:34:29.694Z,2.47
2018-09-24T21:37:02.754Z,2.15
2018-09-24T21:39:35.458Z,2.30
2018-09-24T21:42:08.736Z,2.05
2018-09-24T21:44:41.634Z,1.82
2018-09-24T21:47:14.925Z,1.50
2018-09-24T21:49:47.990Z,2.00
2018-09-24T21:52:21.574Z,2.10
2018-09-24T22:02:08.805Z,2.00
2018-09-24T22:04:41.593Z,2.20
2018-09-24T22:09:47.847Z,2.20
2018-09-24T22:12:25.706Z,2.45
2018-09-24T22:14:58.486Z,2.40
2018-09-24T22:17:31.360Z,2.95
2018-09-24T22:20:03.979Z,3.02
2018-09-24T22:22:36.718Z,2.40
2018-09-24T22:25:09.562Z,2.33
2018-09-24T22:27:42.358Z,1.90
2018-09-24T22:30:15.582Z,2.30
2018-09-24T22:32:48.229Z,1.80
2018-09-24T22:35:21.009Z,2.20
2018-09-24T22:37:53.798Z,1.92
2018-09-24T22:40:26.587Z,1.90
2018-09-24T22:42:59.565Z,2.80
2018-09-24T22:45:33.028Z,2.25
2018-09-24T22:48:05.807Z,1.85
2018-09-24T22:50:38.731Z,2.00
2018-09-24T22:53:11.473Z,2.02
2018-09-24T22:55:44.312Z,1.65
2018-09-24T22:58:17.240Z,2.00
2018-09-24T23:00:53.932Z,2.10
2018-09-24T23:03:26.744Z,2.17
2018-09-24T23:06:00.313Z,1.70
2018-09-24T23:08:33.147Z,1.72
2018-09-24T23:11:05.822Z,1.90
2018-09-24T23:13:38.601Z,1.95
2018-09-24T23:16:15.733Z,2.00
2018-09-24T23:18:48.410Z,1.90
2018-09-24T23:21:21.455Z,2.05
2018-09-24T23:23:54.382Z,1.70
2018-09-24T23:26:31.292Z,2.27
2018-09-24T23:29:04.066Z,2.42
2018-09-24T23:31:37.110Z,1.98
2018-09-24T23:34:09.838Z,1.80
2018-09-24T23:36:43.157Z,1.90
2018-09-24T23:39:16.358Z,2.30
2018-09-24T23:41:49.361Z,2.12
2018-09-24T23:44:22.905Z,1.85
2018-09-24T23:46:57.013Z,1.90
2018-09-24T23:49:29.803Z,2.45
2018-09-24T23:52:04.010Z,1.67
2018-09-24T23:54:42.338Z,2.08
2018-09-24T23:57:15.217Z,1.95
2018-09-24T23:59:48.342Z,1.90
